MX-0395 weather

CLOSED Palenque Old Airport
Palenque, Chiapas, Mexico

Public forecast

Using degrees Celsius for public forecast. Weather courtesy of forecast.io.

Closest aviation weather report (METAR) to Palenque Old Airport

Report is more than 2 hours old.

Closest report is Palenque International Airport, 1.8 nm (3.3 km) W. Retrieved 2020/02/27 22:55 UTC (3 hours ago):

MMPQ 272255Z 00000KT 3SM HZ OVC010 18/17 A3015 RMK 8/7//

Closest aviation forecast (TAF) to Palenque Old Airport

Forecast is more than 6 hours old.

Closest forecast is Palenque International Airport, 1.8 nm (3.3 km) W. Retrieved 2020/02/27 18:09 UTC (8 hours ago):

TAF MMPQ 271709Z 2718/2818 27010KT 4SM HZ BKN010 OVC070 TEMPO 2803/2807 3SM -RA FM280900 22010KT 3SM HZ SCT010 OVC070 FM281500 06010KT 2SM HZ OVC010